Time,TemperatureF,DewpointF,PressureIn,WindDirection,WindDirectionDegrees,WindSpeedMPH,WindSpeedGustMPH,Humidity,HourlyPrecipIn,Conditions,Clouds,dailyrainin,SoftwareType,DateUTC
2013-03-10 00:01:00,45.0,41.0,26.20,North,3,1.0,2.0,86,-99.99,,,-99.99,,2013-03-10 08:01:00,
2013-03-10 00:11:00,45.0,41.0,26.20,NE,50,1.0,2.0,86,-99.99,,,-99.99,,2013-03-10 08:11:00,
2013-03-10 00:21:00,45.0,41.0,26.17,NNE,30,1.0,2.0,86,-99.99,,,-99.99,,2013-03-10 08:21:00,
2013-03-10 00:31:00,43.0,39.0,26.17,WSW,247,0.0,1.0,86,-99.99,,,-99.99,,2013-03-10 08:31:00,
2013-03-10 00:42:00,42.0,39.0,26.20,WNW,289,1.0,2.0,89,-99.99,,,-99.99,,2013-03-10 08:42:00,
2013-03-10 00:51:00,42.0,40.0,26.26,North,354,1.0,2.0,92,-99.99,,,-99.99,,2013-03-10 08:51:00,
2013-03-10 01:01:00,42.0,40.0,26.26,North,354,1.0,2.0,92,-99.99,,,-99.99,,2013-03-10 09:01:00,
2013-03-10 01:11:00,43.0,41.0,26.26,North,351,0.0,1.0,93,-99.99,,,-99.99,,2013-03-10 09:11:00,
2013-03-10 01:21:00,43.0,41.0,26.23,NE,35,1.0,2.0,91,-99.99,,,-99.99,,2013-03-10 09:21:00,
2013-03-10 01:31:00,43.0,40.0,26.23,NE,34,1.0,2.0,90,-99.99,,,-99.99,,2013-03-10 09:31:00,
2013-03-10 01:41:00,43.0,40.0,26.23,NE,34,1.0,2.0,90,-99.99,,,-99.99,,2013-03-10 09:41:00,
2013-03-10 01:51:00,44.0,41.0,26.20,NNW,341,1.0,3.0,88,-99.99,,,-99.99,,2013-03-10 09:51:00,
2013-03-10 03:01:00,44.0,41.0,26.20,NNW,341,1.0,3.0,88,-99.99,,,-99.99,,2013-03-10 10:01:00,
2013-03-10 03:11:00,44.0,40.0,26.20,ENE,70,1.0,1.0,87,-99.99,,,-99.99,,2013-03-10 10:11:00,
2013-03-10 03:21:00,44.0,40.0,26.20,ENE,70,1.0,1.0,87,-99.99,,,-99.99,,2013-03-10 10:21:00,
2013-03-10 03:31:00,41.0,38.0,26.20,SSE,166,0.0,1.0,89,-99.99,,,-99.99,,2013-03-10 10:31:00,
2013-03-10 03:41:00,41.0,38.0,26.20,SSE,166,0.0,1.0,89,-99.99,,,-99.99,,2013-03-10 10:41:00,
2013-03-10 03:51:00,40.0,38.0,26.23,West,266,1.0,1.0,92,-99.99,,,-99.99,,2013-03-10 10:51:00,
2013-03-10 04:01:00,41.0,39.0,26.26,NE,39,1.0,1.0,93,-99.99,,,-99.99,,2013-03-10 11:01:00,
2013-03-10 04:11:00,41.0,39.0,26.26,NNE,25,1.0,2.0,93,-99.99,,,-99.99,,2013-03-10 11:11:00,
2013-03-10 04:21:00,41.0,39.0,26.26,NE,45,1.0,3.0,94,-99.99,,,-99.99,,2013-03-10 11:21:00,
2013-03-10 04:31:00,42.0,40.0,26.26,North,9,1.0,2.0,93,-99.99,,,-99.99,,2013-03-10 11:31:00,
2013-03-10 04:42:00,42.0,40.0,26.23,North,357,1.0,3.0,91,-99.99,,,-99.99,,2013-03-10 11:42:00,
2013-03-10 04:52:00,43.0,40.0,26.23,NNE,20,1.0,2.0,90,-99.99,,,-99.99,,2013-03-10 11:52:00,
2013-03-10 05:01:00,42.0,39.0,26.20,West,270,0.0,1.0,88,-99.99,,,-99.99,,2013-03-10 12:01:00,
2013-03-10 05:11:00,42.0,40.0,26.23,NE,43,1.0,3.0,91,-99.99,,,-99.99,,2013-03-10 12:11:00,
2013-03-10 05:21:00,43.0,40.0,26.20,NE,48,1.0,2.0,88,-99.99,,,-99.99,,2013-03-10 12:21:00,
2013-03-10 05:31:00,41.0,38.0,26.20,NNE,29,1.0,3.0,88,-99.99,,,-99.99,,2013-03-10 12:31:00,
2013-03-10 05:42:00,41.0,39.0,26.23,NE,46,1.0,4.0,91,-99.99,,,-99.99,,2013-03-10 12:42:00,
2013-03-10 05:51:00,40.0,38.0,26.20,NW,319,1.0,3.0,91,-99.99,,,-99.99,,2013-03-10 12:51:00,
2013-03-10 06:01:00,40.0,38.0,26.20,NW,319,1.0,3.0,91,-99.99,,,-99.99,,2013-03-10 13:01:00,
2013-03-10 06:11:00,40.0,38.0,26.23,NNE,30,1.0,1.0,92,-99.99,,,-99.99,,2013-03-10 13:11:00,
2013-03-10 06:21:00,40.0,38.0,26.23,NNE,19,1.0,3.0,93,-99.99,,,-99.99,,2013-03-10 13:21:00,
2013-03-10 06:31:00,38.0,36.0,26.23,ENE,73,0.0,1.0,92,-99.99,,,-99.99,,2013-03-10 13:31:00,
2013-03-10 06:41:00,39.0,38.0,26.26,NNW,333,1.0,2.0,95,-99.99,,,-99.99,,2013-03-10 13:41:00,
2013-03-10 06:51:00,39.0,38.0,26.26,North,360,1.0,2.0,95,-99.99,,,-99.99,,2013-03-10 13:51:00,
2013-03-10 07:01:00,39.0,38.0,26.26,North,360,1.0,2.0,95,-99.99,,,-99.99,,2013-03-10 14:01:00,
2013-03-10 07:11:00,40.0,38.0,26.26,NNE,22,1.0,4.0,94,-99.99,,,-99.99,,2013-03-10 14:11:00,
2013-03-10 07:21:00,40.0,38.0,26.26,North,9,1.0,4.0,94,-99.99,,,-99.99,,2013-03-10 14:21:00,
2013-03-10 07:32:00,41.0,39.0,26.26,NNW,346,1.0,4.0,94,-99.99,,,-99.99,,2013-03-10 14:32:00,
2013-03-10 07:41:00,41.0,39.0,26.23,NNE,13,1.0,3.0,91,-99.99,,,-99.99,,2013-03-10 14:41:00,
2013-03-10 07:51:00,42.0,40.0,26.23,North,11,2.0,5.0,91,-99.99,,,-99.99,,2013-03-10 14:51:00,
2013-03-10 08:01:00,42.0,40.0,26.23,North,11,2.0,5.0,91,-99.99,,,-99.99,,2013-03-10 15:01:00,
2013-03-10 08:11:00,42.0,39.0,26.20,North,360,1.0,3.0,88,-99.99,,,-99.99,,2013-03-10 15:11:00,
2013-03-10 08:21:00,41.0,39.0,26.23,NNE,17,1.0,4.0,91,-99.99,,,-99.99,,2013-03-10 15:21:00,
2013-03-10 08:31:00,42.0,39.0,26.23,NNW,339,1.0,2.0,90,-99.99,,,-99.99,,2013-03-10 15:31:00,
2013-03-10 08:40:00,48.0,42.0,26.14,NE,43,1.0,2.0,81,-99.99,,,-99.99,,2013-03-10 15:40:00,
2013-03-10 08:41:00,44.0,41.0,26.23,North,358,1.0,2.0,89,-99.99,,,-99.99,,2013-03-10 15:41:00,
2013-03-10 08:51:00,45.0,41.0,26.20,NE,46,1.0,2.0,86,-99.99,,,-99.99,,2013-03-10 15:51:00,
2013-03-10 09:01:00,45.0,41.0,26.20,NE,46,1.0,2.0,86,-99.99,,,-99.99,,2013-03-10 16:01:00,
2013-03-10 09:11:00,48.0,42.0,26.14,NE,43,1.0,2.0,81,-99.99,,,-99.99,,2013-03-10 16:11:00,
2013-03-10 09:21:00,48.0,42.0,26.14,NE,43,1.0,2.0,81,-99.99,,,-99.99,,2013-03-10 16:21:00,
2013-03-10 09:31:00,48.0,42.0,26.14,NE,43,1.0,2.0,81,-99.99,,,-99.99,,2013-03-10 16:31:00,
2013-03-10 10:51:00,63.0,42.0,25.84,SE,132,1.0,3.0,46,-99.99,,,-99.99,,2013-03-10 17:51:00,
2013-03-10 11:01:00,63.0,42.0,25.84,SE,132,1.0,3.0,46,-99.99,,,-99.99,,2013-03-10 18:01:00,
2013-03-10 11:11:00,64.0,44.0,25.87,SSE,163,1.0,4.0,49,-99.99,,,-99.99,,2013-03-10 18:11:00,
2013-03-10 11:21:00,65.0,44.0,25.87,SSE,161,2.0,6.0,47,-99.99,,,-99.99,,2013-03-10 18:21:00,
2013-03-10 11:31:00,65.0,44.0,25.87,SSE,161,2.0,6.0,47,-99.99,,,-99.99,,2013-03-10 18:31:00,
2013-03-10 11:41:00,65.0,43.0,25.81,SSW,193,2.0,6.0,44,-99.99,,,-99.99,,2013-03-10 18:41:00,
2013-03-10 11:52:00,66.0,43.0,25.84,SSW,208,2.0,6.0,43,-99.99,,,-99.99,,2013-03-10 18:52:00,
2013-03-10 12:01:00,66.0,40.0,25.78,SSW,197,2.0,8.0,39,-99.99,,,-99.99,,2013-03-10 19:01:00,
2013-03-10 12:11:00,68.0,39.0,25.75,SSW,194,1.0,5.0,35,-99.99,,,-99.99,,2013-03-10 19:11:00,
2013-03-10 12:21:00,70.0,35.0,25.66,SSE,157,1.0,5.0,28,-99.99,,,-99.99,,2013-03-10 19:21:00,
2013-03-10 12:31:00,68.0,41.0,25.75,WSW,248,6.0,15.0,37,-99.99,,,-99.99,,2013-03-10 19:31:00,
2013-03-10 12:41:00,65.0,44.0,25.87,SW,226,5.0,10.0,46,-99.99,,,-99.99,,2013-03-10 19:41:00,
2013-03-10 12:52:00,65.0,44.0,25.84,WSW,250,7.0,15.0,46,-99.99,,,-99.99,,2013-03-10 19:52:00,
2013-03-10 13:01:00,65.0,44.0,25.84,WSW,250,7.0,15.0,46,-99.99,,,-99.99,,2013-03-10 20:01:00,
2013-03-10 13:12:00,64.0,43.0,25.84,WSW,237,4.0,8.0,46,-99.99,,,-99.99,,2013-03-10 20:12:00,
2013-03-10 13:22:00,65.0,42.0,25.81,SW,228,3.0,6.0,43,-99.99,,,-99.99,,2013-03-10 20:22:00,
2013-03-10 13:32:00,66.0,42.0,25.81,SSW,194,2.0,6.0,41,-99.99,,,-99.99,,2013-03-10 20:32:00,
2013-03-10 13:42:00,67.0,41.0,25.78,SW,222,3.0,8.0,38,-99.99,,,-99.99,,2013-03-10 20:42:00,
2013-03-10 13:52:00,67.0,43.0,25.81,SW,232,4.0,10.0,42,-99.99,,,-99.99,,2013-03-10 20:52:00,
2013-03-10 14:02:00,67.0,43.0,25.81,SW,232,4.0,10.0,42,-99.99,,,-99.99,,2013-03-10 21:02:00,
2013-03-10 14:12:00,65.0,45.0,25.90,WSW,244,5.0,10.0,49,-99.99,,,-99.99,,2013-03-10 21:12:00,
2013-03-10 14:22:00,66.0,43.0,25.84,WSW,245,4.0,9.0,44,-99.99,,,-99.99,,2013-03-10 21:22:00,
2013-03-10 14:32:00,66.0,43.0,25.81,SW,231,3.0,7.0,43,-99.99,,,-99.99,,2013-03-10 21:32:00,
2013-03-10 14:42:00,67.0,41.0,25.78,SW,228,3.0,7.0,38,-99.99,,,-99.99,,2013-03-10 21:42:00,
2013-03-10 14:52:00,67.0,44.0,25.81,WSW,242,4.0,9.0,43,-99.99,,,-99.99,,2013-03-10 21:52:00,
2013-03-10 15:02:00,68.0,45.0,25.84,SSW,208,3.0,5.0,43,-99.99,,,-99.99,,2013-03-10 22:02:00,
2013-03-10 15:12:00,68.0,42.0,25.78,SW,227,2.0,7.0,39,-99.99,,,-99.99,,2013-03-10 22:12:00,
2013-03-10 15:22:00,70.0,42.0,25.75,SW,236,2.0,5.0,36,-99.99,,,-99.99,,2013-03-10 22:22:00,
2013-03-10 15:32:00,70.0,39.0,25.72,WSW,239,3.0,9.0,32,-99.99,,,-99.99,,2013-03-10 22:32:00,
2013-03-10 15:42:00,71.0,40.0,25.72,WSW,249,3.0,8.0,32,-99.99,,,-99.99,,2013-03-10 22:42:00,
2013-03-10 15:52:00,71.0,40.0,25.75,SSW,197,2.0,6.0,33,-99.99,,,-99.99,,2013-03-10 22:52:00,
2013-03-10 16:02:00,73.0,40.0,25.72,WSW,250,2.0,7.0,30,-99.99,,,-99.99,,2013-03-10 23:02:00,
2013-03-10 16:12:00,72.0,39.0,25.72,WSW,253,5.0,11.0,30,-99.99,,,-99.99,,2013-03-10 23:12:00,
2013-03-10 16:22:00,71.0,36.0,25.69,WSW,258,6.0,11.0,28,-99.99,,,-99.99,,2013-03-10 23:22:00,
2013-03-10 16:32:00,72.0,35.0,25.66,West,266,4.0,11.0,26,-99.99,,,-99.99,,2013-03-10 23:32:00,
2013-03-10 16:42:00,72.0,35.0,25.66,West,266,4.0,11.0,26,-99.99,,,-99.99,,2013-03-10 23:42:00,
2013-03-10 16:51:00,73.0,35.0,25.66,WSW,250,2.0,8.0,25,-99.99,,,-99.99,,2013-03-10 23:51:00,
2013-03-10 17:02:00,72.0,34.0,25.66,WSW,242,4.0,10.0,25,-99.99,,,-99.99,,2013-03-11 00:02:00,
2013-03-10 17:12:00,72.0,33.0,25.66,WSW,251,5.0,10.0,24,-99.99,,,-99.99,,2013-03-11 00:12:00,
2013-03-10 17:22:00,72.0,31.0,25.63,WSW,254,5.0,11.0,22,-99.99,,,-99.99,,2013-03-11 00:22:00,
2013-03-10 17:32:00,72.0,31.0,25.63,West,259,4.0,10.0,22,-99.99,,,-99.99,,2013-03-11 00:32:00,
2013-03-10 17:42:00,72.0,30.0,25.63,West,264,3.0,8.0,21,-99.99,,,-99.99,,2013-03-11 00:42:00,
2013-03-10 17:52:00,72.0,30.0,25.61,West,272,4.0,9.0,21,-99.99,,,-99.99,,2013-03-11 00:52:00,
2013-03-10 18:02:00,71.0,31.0,25.63,WSW,248,5.0,9.0,23,-99.99,,,-99.99,,2013-03-11 01:02:00,
2013-03-10 18:12:00,69.0,33.0,25.66,WSW,241,6.0,10.0,26,-99.99,,,-99.99,,2013-03-11 01:12:00,
2013-03-10 18:22:00,69.0,31.0,25.63,WSW,248,4.0,9.0,24,-99.99,,,-99.99,,2013-03-11 01:22:00,
2013-03-10 18:32:00,69.0,34.0,25.66,SW,232,3.0,8.0,27,-99.99,,,-99.99,,2013-03-11 01:32:00,
2013-03-10 18:42:00,68.0,35.0,25.69,WSW,237,3.0,10.0,29,-99.99,,,-99.99,,2013-03-11 01:42:00,
2013-03-10 18:52:00,67.0,29.0,25.63,WSW,255,2.0,8.0,24,-99.99,,,-99.99,,2013-03-11 01:52:00,
2013-03-10 19:02:00,67.0,28.0,25.61,South,173,1.0,5.0,23,-99.99,,,-99.99,,2013-03-11 02:02:00,
2013-03-10 19:12:00,65.0,28.0,25.61,East,95,1.0,3.0,25,-99.99,,,-99.99,,2013-03-11 02:12:00,
2013-03-10 19:21:00,65.0,29.0,25.61,NE,54,1.0,2.0,26,-99.99,,,-99.99,,2013-03-11 02:21:00,
2013-03-10 19:32:00,64.0,31.0,25.63,NE,45,1.0,4.0,29,-99.99,,,-99.99,,2013-03-11 02:32:00,
2013-03-10 19:42:00,60.0,34.0,25.69,ENE,75,1.0,4.0,37,-99.99,,,-99.99,,2013-03-11 02:42:00,
2013-03-10 19:52:00,58.0,35.0,25.75,North,7,1.0,2.0,42,-99.99,,,-99.99,,2013-03-11 02:52:00,
2013-03-10 20:02:00,58.0,36.0,25.75,NE,55,3.0,8.0,43,-99.99,,,-99.99,,2013-03-11 03:02:00,
2013-03-10 20:12:00,57.0,36.0,25.78,NNE,19,1.0,3.0,45,-99.99,,,-99.99,,2013-03-11 03:12:00,
2013-03-10 20:21:00,56.0,38.0,25.81,North,10,2.0,4.0,50,-99.99,,,-99.99,,2013-03-11 03:21:00,
2013-03-10 20:31:00,55.0,38.0,25.84,North,351,3.0,5.0,53,-99.99,,,-99.99,,2013-03-11 03:31:00,
2013-03-10 20:42:00,54.0,39.0,25.87,North,353,1.0,3.0,56,-99.99,,,-99.99,,2013-03-11 03:42:00,
2013-03-10 20:52:00,53.0,38.0,25.90,North,354,1.0,4.0,57,-99.99,,,-99.99,,2013-03-11 03:52:00,
2013-03-10 21:02:00,52.0,38.0,25.90,North,10,1.0,3.0,59,-99.99,,,-99.99,,2013-03-11 04:02:00,
2013-03-10 21:12:00,52.0,38.0,25.90,North,358,1.0,6.0,59,-99.99,,,-99.99,,2013-03-11 04:12:00,
2013-03-10 21:22:00,52.0,38.0,25.90,NNE,23,1.0,3.0,59,-99.99,,,-99.99,,2013-03-11 04:22:00,
2013-03-10 21:32:00,52.0,38.0,25.90,ENE,70,1.0,3.0,59,-99.99,,,-99.99,,2013-03-11 04:32:00,
2013-03-10 21:42:00,52.0,38.0,25.90,ENE,70,1.0,3.0,59,-99.99,,,-99.99,,2013-03-11 04:42:00,
2013-03-10 21:52:00,52.0,37.0,25.87,ENE,62,1.0,2.0,57,-99.99,,,-99.99,,2013-03-11 04:52:00,
2013-03-10 22:02:00,51.0,36.0,25.87,East,96,1.0,3.0,57,-99.99,,,-99.99,,2013-03-11 05:02:00,
2013-03-10 22:11:00,52.0,36.0,25.84,NE,54,2.0,4.0,54,-99.99,,,-99.99,,2013-03-11 05:11:00,
2013-03-10 22:22:00,52.0,35.0,25.84,NNE,30,2.0,4.0,53,-99.99,,,-99.99,,2013-03-11 05:22:00,
2013-03-10 22:32:00,51.0,37.0,25.87,NE,37,2.0,3.0,58,-99.99,,,-99.99,,2013-03-11 05:32:00,
2013-03-10 22:42:00,51.0,37.0,25.87,NE,37,2.0,3.0,58,-99.99,,,-99.99,,2013-03-11 05:42:00,
2013-03-10 22:52:00,51.0,37.0,25.87,NNE,25,1.0,1.0,58,-99.99,,,-99.99,,2013-03-11 05:52:00,
2013-03-10 23:02:00,50.0,36.0,25.87,NE,48,1.0,2.0,58,-99.99,,,-99.99,,2013-03-11 06:02:00,
2013-03-10 23:11:00,50.0,35.0,25.87,NNE,18,1.0,2.0,57,-99.99,,,-99.99,,2013-03-11 06:11:00,
2013-03-10 23:22:00,51.0,35.0,25.84,NNE,20,0.0,2.0,55,-99.99,,,-99.99,,2013-03-11 06:22:00,
2013-03-10 23:32:00,50.0,35.0,25.84,NE,43,1.0,2.0,56,-99.99,,,-99.99,,2013-03-11 06:32:00,
2013-03-10 23:42:00,50.0,35.0,25.84,NE,43,1.0,2.0,56,-99.99,,,-99.99,,2013-03-11 06:42:00,
2013-03-10 23:52:00,49.0,34.0,25.84,NE,46,1.0,3.0,56,-99.99,,,-99.99,,2013-03-11 06:52:00,